sensor_id;sensor_type;location;lat;lon;timestamp;pressure;altitude;pressure_sealevel;temperature;humidity
22653;BME280;11493;43.344;26.226;2023-05-12T00:00:29;99786.28;;;8.87;100.00
22653;BME280;11493;43.344;26.226;2023-05-12T00:02:56;99778.97;;;8.78;100.00
22653;BME280;11493;43.344;26.226;2023-05-12T00:05:23;99780.03;;;8.82;100.00
22653;BME280;11493;43.344;26.226;2023-05-12T00:07:50;99783.25;;;8.89;100.00
22653;BME280;11493;43.344;26.226;2023-05-12T00:10:17;99785.91;;;8.94;100.00
22653;BME280;11493;43.344;26.226;2023-05-12T00:12:45;99768.25;;;8.81;100.00
22653;BME280;11493;43.344;26.226;2023-05-12T00:15:13;99782.25;;;8.80;100.00
22653;BME280;11493;43.344;26.226;2023-05-12T00:17:40;99779.50;;;8.80;100.00
22653;BME280;11493;43.344;26.226;2023-05-12T00:20:07;99776.25;;;8.78;100.00
22653;BME280;11493;43.344;26.226;2023-05-12T00:22:34;99769.34;;;8.80;100.00
22653;BME280;11493;43.344;26.226;2023-05-12T00:25:01;99776.94;;;8.88;100.00
22653;BME280;11493;43.344;26.226;2023-05-12T00:27:28;99781.91;;;9.05;100.00
22653;BME280;11493;43.344;26.226;2023-05-12T00:29:57;99778.59;;;9.08;100.00
22653;BME280;11493;43.344;26.226;2023-05-12T00:32:25;99778.53;;;9.13;100.00
22653;BME280;11493;43.344;26.226;2023-05-12T00:34:53;99773.63;;;9.10;100.00
22653;BME280;11493;43.344;26.226;2023-05-12T00:37:20;99789.50;;;9.13;100.00
22653;BME280;11493;43.344;26.226;2023-05-12T00:39:47;99780.88;;;9.01;100.00
22653;BME280;11493;43.344;26.226;2023-05-12T00:42:14;99790.81;;;8.97;100.00
22653;BME280;11493;43.344;26.226;2023-05-12T00:44:41;99790.81;;;8.97;100.00
22653;BME280;11493;43.344;26.226;2023-05-12T00:47:08;99788.66;;;8.94;100.00
22653;BME280;11493;43.344;26.226;2023-05-12T00:49:36;99790.03;;;8.92;100.00
22653;BME280;11493;43.344;26.226;2023-05-12T00:52:03;99785.09;;;8.70;100.00
22653;BME280;11493;43.344;26.226;2023-05-12T00:54:31;99780.16;;;8.72;100.00
22653;BME280;11493;43.344;26.226;2023-05-12T00:56:58;99776.34;;;8.68;100.00
22653;BME280;11493;43.344;26.226;2023-05-12T00:59:26;99785.00;;;8.80;100.00
22653;BME280;11493;43.344;26.226;2023-05-12T01:01:54;99794.00;;;8.85;100.00
22653;BME280;11493;43.344;26.226;2023-05-12T01:04:22;99788.31;;;8.77;100.00
22653;BME280;11493;43.344;26.226;2023-05-12T01:09:31;99785.44;;;8.63;100.00
22653;BME280;11493;43.344;26.226;2023-05-12T01:11:59;99786.91;;;8.55;100.00
22653;BME280;11493;43.344;26.226;2023-05-12T01:14:26;99795.66;;;8.57;100.00
22653;BME280;11493;43.344;26.226;2023-05-12T01:16:57;99779.84;;;8.49;100.00
22653;BME280;11493;43.344;26.226;2023-05-12T01:22:16;99774.88;;;8.51;100.00
22653;BME280;11493;43.344;26.226;2023-05-12T01:24:58;99793.09;;;8.66;100.00
22653;BME280;11493;43.344;26.226;2023-05-12T01:27:28;99785.69;;;8.67;100.00
22653;BME280;11493;43.344;26.226;2023-05-12T01:30:03;99792.28;;;8.66;100.00
22653;BME280;11493;43.344;26.226;2023-05-12T01:32:34;99769.91;;;8.53;100.00
22653;BME280;11493;43.344;26.226;2023-05-12T01:35:03;99771.78;;;8.58;100.00
22653;BME280;11493;43.344;26.226;2023-05-12T01:37:31;99774.81;;;8.56;100.00
22653;BME280;11493;43.344;26.226;2023-05-12T01:40:01;99779.50;;;8.56;100.00
22653;BME280;11493;43.344;26.226;2023-05-12T01:42:28;99779.25;;;8.52;100.00
22653;BME280;11493;43.344;26.226;2023-05-12T01:44:56;99765.88;;;8.46;100.00
22653;BME280;11493;43.344;26.226;2023-05-12T01:47:24;99768.38;;;8.42;100.00
22653;BME280;11493;43.344;26.226;2023-05-12T01:49:58;99780.88;;;8.53;100.00
22653;BME280;11493;43.344;26.226;2023-05-12T01:52:25;99775.16;;;8.50;100.00
22653;BME280;11493;43.344;26.226;2023-05-12T01:54:52;99776.50;;;8.52;100.00
22653;BME280;11493;43.344;26.226;2023-05-12T01:57:20;99781.47;;;8.50;100.00
22653;BME280;11493;43.344;26.226;2023-05-12T01:59:48;99773.53;;;8.49;100.00
22653;BME280;11493;43.344;26.226;2023-05-12T02:02:15;99768.75;;;8.60;100.00
22653;BME280;11493;43.344;26.226;2023-05-12T02:04:47;99768.66;;;8.70;100.00
22653;BME280;11493;43.344;26.226;2023-05-12T02:07:14;99779.69;;;8.65;100.00
22653;BME280;11493;43.344;26.226;2023-05-12T02:09:42;99768.69;;;8.65;100.00
22653;BME280;11493;43.344;26.226;2023-05-12T02:12:09;99780.78;;;8.64;100.00
22653;BME280;11493;43.344;26.226;2023-05-12T02:14:37;99781.88;;;8.63;100.00
22653;BME280;11493;43.344;26.226;2023-05-12T02:17:04;99773.72;;;8.57;100.00
22653;BME280;11493;43.344;26.226;2023-05-12T02:19:31;99777.56;;;8.56;100.00
22653;BME280;11493;43.344;26.226;2023-05-12T02:21:58;99771.56;;;8.54;100.00
22653;BME280;11493;43.344;26.226;2023-05-12T02:24:25;99779.97;;;8.63;100.00
22653;BME280;11493;43.344;26.226;2023-05-12T02:26:52;99783.59;;;8.59;100.00
22653;BME280;11493;43.344;26.226;2023-05-12T02:29:19;99801.09;;;8.63;100.00
22653;BME280;11493;43.344;26.226;2023-05-12T02:31:47;99773.28;;;8.45;100.00
22653;BME280;11493;43.344;26.226;2023-05-12T02:34:15;99789.13;;;8.53;100.00
22653;BME280;11493;43.344;26.226;2023-05-12T02:36:43;99781.13;;;8.57;100.00
22653;BME280;11493;43.344;26.226;2023-05-12T02:39:10;99762.31;;;8.45;100.00
22653;BME280;11493;43.344;26.226;2023-05-12T02:41:37;99778.81;;;8.69;100.00
22653;BME280;11493;43.344;26.226;2023-05-12T02:44:04;99773.19;;;8.55;100.00
22653;BME280;11493;43.344;26.226;2023-05-12T02:46:31;99759.53;;;8.50;100.00
22653;BME280;11493;43.344;26.226;2023-05-12T02:48:58;99786.84;;;8.61;100.00
22653;BME280;11493;43.344;26.226;2023-05-12T02:51:25;99780.03;;;8.58;100.00
22653;BME280;11493;43.344;26.226;2023-05-12T02:53:52;99798.25;;;8.73;100.00
22653;BME280;11493;43.344;26.226;2023-05-12T02:56:19;99801.22;;;8.76;100.00
22653;BME280;11493;43.344;26.226;2023-05-12T02:58:47;99796.56;;;8.77;100.00
22653;BME280;11493;43.344;26.226;2023-05-12T03:01:14;99801.97;;;8.82;100.00
22653;BME280;11493;43.344;26.226;2023-05-12T03:03:41;99791.47;;;8.89;100.00
22653;BME280;11493;43.344;26.226;2023-05-12T03:06:09;99792.16;;;9.00;100.00
22653;BME280;11493;43.344;26.226;2023-05-12T03:08:36;99791.19;;;9.09;100.00
22653;BME280;11493;43.344;26.226;2023-05-12T03:11:04;99792.31;;;9.08;100.00
22653;BME280;11493;43.344;26.226;2023-05-12T03:13:31;99803.06;;;9.05;100.00
22653;BME280;11493;43.344;26.226;2023-05-12T03:15:59;99790.22;;;9.00;100.00
22653;BME280;11493;43.344;26.226;2023-05-12T03:18:28;99803.81;;;9.10;100.00
22653;BME280;11493;43.344;26.226;2023-05-12T03:20:56;99776.72;;;8.85;100.00
22653;BME280;11493;43.344;26.226;2023-05-12T03:23:23;99792.91;;;9.05;100.00
22653;BME280;11493;43.344;26.226;2023-05-12T03:25:50;99806.84;;;9.09;100.00
22653;BME280;11493;43.344;26.226;2023-05-12T03:28:17;99805.41;;;9.16;100.00
22653;BME280;11493;43.344;26.226;2023-05-12T03:30:45;99803.06;;;9.05;100.00
22653;BME280;11493;43.344;26.226;2023-05-12T03:33:11;99799.56;;;8.99;100.00
22653;BME280;11493;43.344;26.226;2023-05-12T03:35:41;99800.03;;;9.06;100.00
22653;BME280;11493;43.344;26.226;2023-05-12T03:38:08;99825.66;;;9.20;100.00
22653;BME280;11493;43.344;26.226;2023-05-12T03:40:35;99818.41;;;9.30;100.00
22653;BME280;11493;43.344;26.226;2023-05-12T03:43:02;99812.91;;;9.30;100.00
22653;BME280;11493;43.344;26.226;2023-05-12T03:45:29;99826.44;;;9.45;100.00
22653;BME280;11493;43.344;26.226;2023-05-12T03:47:56;99829.25;;;9.40;100.00
22653;BME280;11493;43.344;26.226;2023-05-12T03:50:23;99816.66;;;9.39;100.00
22653;BME280;11493;43.344;26.226;2023-05-12T03:52:50;99822.88;;;9.44;100.00
22653;BME280;11493;43.344;26.226;2023-05-12T03:55:21;99807.81;;;9.42;100.00
22653;BME280;11493;43.344;26.226;2023-05-12T03:57:49;99825.78;;;9.53;100.00
22653;BME280;11493;43.344;26.226;2023-05-12T04:00:16;99837.97;;;9.47;100.00
22653;BME280;11493;43.344;26.226;2023-05-12T04:02:48;99834.56;;;9.55;100.00
22653;BME280;11493;43.344;26.226;2023-05-12T04:05:16;99836.41;;;9.60;100.00
22653;BME280;11493;43.344;26.226;2023-05-12T04:07:44;99828.75;;;9.57;100.00
22653;BME280;11493;43.344;26.226;2023-05-12T04:10:11;99839.28;;;9.68;100.00
22653;BME280;11493;43.344;26.226;2023-05-12T04:12:37;99843.53;;;9.79;100.00
22653;BME280;11493;43.344;26.226;2023-05-12T04:15:06;99852.16;;;9.92;100.00
22653;BME280;11493;43.344;26.226;2023-05-12T04:17:33;99858.97;;;9.94;100.00
22653;BME280;11493;43.344;26.226;2023-05-12T04:20:00;99849.84;;;9.99;100.00
22653;BME280;11493;43.344;26.226;2023-05-12T04:22:27;99846.50;;;10.02;100.00
22653;BME280;11493;43.344;26.226;2023-05-12T04:24:54;99854.66;;;10.07;100.00
22653;BME280;11493;43.344;26.226;2023-05-12T04:27:22;99843.50;;;10.17;100.00
22653;BME280;11493;43.344;26.226;2023-05-12T04:29:48;99851.41;;;10.24;100.00
22653;BME280;11493;43.344;26.226;2023-05-12T04:32:25;99859.88;;;10.27;100.00
22653;BME280;11493;43.344;26.226;2023-05-12T04:35:00;99855.84;;;10.38;100.00
22653;BME280;11493;43.344;26.226;2023-05-12T04:37:28;99856.34;;;10.40;100.00
22653;BME280;11493;43.344;26.226;2023-05-12T04:39:55;99858.31;;;10.53;100.00
22653;BME280;11493;43.344;26.226;2023-05-12T04:42:22;99851.91;;;10.58;100.00
22653;BME280;11493;43.344;26.226;2023-05-12T04:44:51;99854.28;;;10.65;100.00
22653;BME280;11493;43.344;26.226;2023-05-12T04:47:19;99860.63;;;10.79;100.00
22653;BME280;11493;43.344;26.226;2023-05-12T04:49:46;99862.47;;;10.83;100.00
22653;BME280;11493;43.344;26.226;2023-05-12T04:52:15;99858.69;;;10.79;100.00
22653;BME280;11493;43.344;26.226;2023-05-12T04:54:43;99857.06;;;10.92;100.00
22653;BME280;11493;43.344;26.226;2023-05-12T04:57:11;99865.84;;;10.94;100.00
22653;BME280;11493;43.344;26.226;2023-05-12T04:59:38;99863.00;;;10.99;100.00
22653;BME280;11493;43.344;26.226;2023-05-12T05:02:10;99861.69;;;11.10;100.00
22653;BME280;11493;43.344;26.226;2023-05-12T05:04:37;99877.41;;;11.10;100.00
22653;BME280;11493;43.344;26.226;2023-05-12T05:07:08;99874.31;;;10.98;100.00
22653;BME280;11493;43.344;26.226;2023-05-12T05:09:35;99869.50;;;10.90;100.00
22653;BME280;11493;43.344;26.226;2023-05-12T05:12:11;99875.75;;;11.09;100.00
22653;BME280;11493;43.344;26.226;2023-05-12T05:14:38;99886.03;;;11.17;100.00
22653;BME280;11493;43.344;26.226;2023-05-12T05:17:05;99873.91;;;11.18;100.00
22653;BME280;11493;43.344;26.226;2023-05-12T05:19:37;99870.94;;;11.14;100.00
22653;BME280;11493;43.344;26.226;2023-05-12T05:22:21;99881.75;;;11.25;100.00
22653;BME280;11493;43.344;26.226;2023-05-12T05:24:48;99866.88;;;11.26;100.00
22653;BME280;11493;43.344;26.226;2023-05-12T05:27:15;99887.28;;;11.25;100.00
22653;BME280;11493;43.344;26.226;2023-05-12T05:29:42;99872.78;;;11.33;100.00
22653;BME280;11493;43.344;26.226;2023-05-12T05:32:09;99870.44;;;11.26;100.00
22653;BME280;11493;43.344;26.226;2023-05-12T05:34:37;99887.47;;;11.42;100.00
22653;BME280;11493;43.344;26.226;2023-05-12T05:37:04;99884.09;;;11.59;100.00
22653;BME280;11493;43.344;26.226;2023-05-12T05:39:32;99887.88;;;11.63;100.00
22653;BME280;11493;43.344;26.226;2023-05-12T05:41:59;99897.78;;;11.77;99.81
22653;BME280;11493;43.344;26.226;2023-05-12T05:44:26;99892.53;;;11.90;98.65
22653;BME280;11493;43.344;26.226;2023-05-12T05:46:54;99892.31;;;12.00;97.97
22653;BME280;11493;43.344;26.226;2023-05-12T05:49:23;99897.13;;;11.94;97.55
22653;BME280;11493;43.344;26.226;2023-05-12T05:51:51;99890.91;;;11.89;97.41
22653;BME280;11493;43.344;26.226;2023-05-12T05:54:19;99893.22;;;12.09;97.63
22653;BME280;11493;43.344;26.226;2023-05-12T05:56:46;99892.78;;;12.15;96.26
22653;BME280;11493;43.344;26.226;2023-05-12T05:59:14;99887.81;;;12.04;96.67
22653;BME280;11493;43.344;26.226;2023-05-12T06:01:41;99888.81;;;12.08;96.41
22653;BME280;11493;43.344;26.226;2023-05-12T06:04:10;99892.69;;;12.07;96.86
22653;BME280;11493;43.344;26.226;2023-05-12T06:06:37;99894.66;;;12.06;97.30
22653;BME280;11493;43.344;26.226;2023-05-12T06:09:05;99897.75;;;12.27;95.61
22653;BME280;11493;43.344;26.226;2023-05-12T06:11:32;99881.19;;;12.27;95.17
22653;BME280;11493;43.344;26.226;2023-05-12T06:13:59;99889.59;;;12.44;95.13
22653;BME280;11493;43.344;26.226;2023-05-12T06:16:26;99898.97;;;12.57;93.56
22653;BME280;11493;43.344;26.226;2023-05-12T06:18:54;99889.75;;;12.62;92.53
22653;BME280;11493;43.344;26.226;2023-05-12T06:21:21;99887.88;;;12.79;92.93
22653;BME280;11493;43.344;26.226;2023-05-12T06:23:48;99897.09;;;12.75;91.82
22653;BME280;11493;43.344;26.226;2023-05-12T06:26:17;99887.44;;;12.86;91.40
22653;BME280;11493;43.344;26.226;2023-05-12T06:28:44;99897.75;;;13.03;90.21
22653;BME280;11493;43.344;26.226;2023-05-12T06:31:11;99893.91;;;13.12;89.61
22653;BME280;11493;43.344;26.226;2023-05-12T06:33:38;99897.78;;;13.34;88.36
22653;BME280;11493;43.344;26.226;2023-05-12T06:36:05;99895.50;;;13.36;86.82
22653;BME280;11493;43.344;26.226;2023-05-12T06:38:33;99909.16;;;13.41;87.05
22653;BME280;11493;43.344;26.226;2023-05-12T06:40:59;99908.69;;;13.47;85.46
22653;BME280;11493;43.344;26.226;2023-05-12T06:43:27;99897.63;;;13.47;83.62
22653;BME280;11493;43.344;26.226;2023-05-12T06:45:54;99893.94;;;13.61;83.46
22653;BME280;11493;43.344;26.226;2023-05-12T06:48:22;99915.16;;;13.82;82.88
22653;BME280;11493;43.344;26.226;2023-05-12T06:50:50;99911.41;;;13.78;81.16
22653;BME280;11493;43.344;26.226;2023-05-12T06:53:17;99897.75;;;13.91;79.50
22653;BME280;11493;43.344;26.226;2023-05-12T06:55:44;99896.94;;;13.99;79.34
22653;BME280;11493;43.344;26.226;2023-05-12T06:58:11;99901.34;;;14.00;78.02
22653;BME280;11493;43.344;26.226;2023-05-12T07:00:38;99891.09;;;13.92;78.77
22653;BME280;11493;43.344;26.226;2023-05-12T07:03:06;99903.63;;;14.15;75.75
22653;BME280;11493;43.344;26.226;2023-05-12T07:05:36;99908.03;;;14.25;76.17
22653;BME280;11493;43.344;26.226;2023-05-12T07:08:03;99905.78;;;14.53;75.60
22653;BME280;11493;43.344;26.226;2023-05-12T07:10:31;99910.97;;;14.80;72.21
22653;BME280;11493;43.344;26.226;2023-05-12T07:12:58;99902.47;;;14.85;70.44
22653;BME280;11493;43.344;26.226;2023-05-12T07:15:26;99909.56;;;15.03;66.98
22653;BME280;11493;43.344;26.226;2023-05-12T07:17:53;99903.38;;;15.06;68.35
22653;BME280;11493;43.344;26.226;2023-05-12T07:20:21;99907.16;;;14.93;69.57
22653;BME280;11493;43.344;26.226;2023-05-12T07:22:48;99896.97;;;14.68;68.36
22653;BME280;11493;43.344;26.226;2023-05-12T07:25:17;99915.06;;;14.57;69.38
22653;BME280;11493;43.344;26.226;2023-05-12T07:27:45;99914.06;;;14.70;69.07
22653;BME280;11493;43.344;26.226;2023-05-12T07:30:12;99907.22;;;14.76;66.11
22653;BME280;11493;43.344;26.226;2023-05-12T07:32:39;99915.88;;;14.57;67.17
22653;BME280;11493;43.344;26.226;2023-05-12T07:35:06;99915.38;;;14.55;66.59
22653;BME280;11493;43.344;26.226;2023-05-12T07:37:34;99912.13;;;14.62;66.22
22653;BME280;11493;43.344;26.226;2023-05-12T07:40:01;99913.25;;;14.61;65.32
22653;BME280;11493;43.344;26.226;2023-05-12T07:42:29;99914.88;;;14.62;64.65
22653;BME280;11493;43.344;26.226;2023-05-12T07:44:56;99909.81;;;14.81;63.98
22653;BME280;11493;43.344;26.226;2023-05-12T07:47:23;99908.28;;;14.92;64.96
22653;BME280;11493;43.344;26.226;2023-05-12T07:49:50;99903.41;;;14.89;65.67
22653;BME280;11493;43.344;26.226;2023-05-12T07:52:17;99903.09;;;14.91;64.65
22653;BME280;11493;43.344;26.226;2023-05-12T07:54:44;99908.03;;;14.76;64.84
22653;BME280;11493;43.344;26.226;2023-05-12T07:57:11;99903.72;;;14.96;64.43
22653;BME280;11493;43.344;26.226;2023-05-12T07:59:38;99907.25;;;15.14;63.84
22653;BME280;11493;43.344;26.226;2023-05-12T08:02:06;99907.38;;;15.26;64.04
22653;BME280;11493;43.344;26.226;2023-05-12T08:04:33;99907.13;;;15.49;61.71
22653;BME280;11493;43.344;26.226;2023-05-12T08:07:00;99916.56;;;15.56;62.06
22653;BME280;11493;43.344;26.226;2023-05-12T08:09:27;99901.81;;;15.35;61.44
22653;BME280;11493;43.344;26.226;2023-05-12T08:11:54;99913.22;;;15.33;63.28
22653;BME280;11493;43.344;26.226;2023-05-12T08:14:21;99906.09;;;15.24;62.76
22653;BME280;11493;43.344;26.226;2023-05-12T08:16:48;99927.91;;;15.34;61.42
22653;BME280;11493;43.344;26.226;2023-05-12T08:19:16;99903.34;;;15.15;61.94
22653;BME280;11493;43.344;26.226;2023-05-12T08:21:43;99905.59;;;15.22;62.14
22653;BME280;11493;43.344;26.226;2023-05-12T08:24:10;99913.91;;;15.30;61.85
22653;BME280;11493;43.344;26.226;2023-05-12T08:26:37;99913.91;;;15.30;61.93
22653;BME280;11493;43.344;26.226;2023-05-12T08:29:03;99910.78;;;15.32;61.81
22653;BME280;11493;43.344;26.226;2023-05-12T08:31:32;99920.91;;;15.28;62.24
22653;BME280;11493;43.344;26.226;2023-05-12T08:33:59;99916.13;;;15.45;60.98
22653;BME280;11493;43.344;26.226;2023-05-12T08:36:37;99918.47;;;15.26;62.38
22653;BME280;11493;43.344;26.226;2023-05-12T08:39:06;99927.88;;;15.42;61.89
22653;BME280;11493;43.344;26.226;2023-05-12T08:44:08;99919.59;;;15.34;62.61
22653;BME280;11493;43.344;26.226;2023-05-12T08:46:37;99922.19;;;15.39;63.07
22653;BME280;11493;43.344;26.226;2023-05-12T08:49:05;99921.69;;;15.37;62.99
22653;BME280;11493;43.344;26.226;2023-05-12T08:51:35;99916.19;;;15.28;64.27
22653;BME280;11493;43.344;26.226;2023-05-12T08:54:06;99908.97;;;15.36;64.76
22653;BME280;11493;43.344;26.226;2023-05-12T08:56:34;99915.13;;;15.59;63.66
22653;BME280;11493;43.344;26.226;2023-05-12T08:59:07;99905.91;;;15.29;64.95
22653;BME280;11493;43.344;26.226;2023-05-12T09:01:35;99920.38;;;15.43;65.42
22653;BME280;11493;43.344;26.226;2023-05-12T09:04:04;99913.19;;;15.42;65.79
22653;BME280;11493;43.344;26.226;2023-05-12T09:06:32;99902.78;;;15.39;65.27
22653;BME280;11493;43.344;26.226;2023-05-12T09:08:59;99906.34;;;15.39;65.33
22653;BME280;11493;43.344;26.226;2023-05-12T09:11:27;99906.56;;;15.26;65.53
22653;BME280;11493;43.344;26.226;2023-05-12T09:13:59;99915.22;;;15.24;65.97
22653;BME280;11493;43.344;26.226;2023-05-12T09:16:30;99916.41;;;15.15;66.86
22653;BME280;11493;43.344;26.226;2023-05-12T09:18:59;99903.84;;;15.08;67.04
22653;BME280;11493;43.344;26.226;2023-05-12T09:21:27;99907.84;;;15.37;66.35
22653;BME280;11493;43.344;26.226;2023-05-12T09:26:26;99907.06;;;15.28;66.09
22653;BME280;11493;43.344;26.226;2023-05-12T09:28:54;99909.63;;;15.41;66.38
22653;BME280;11493;43.344;26.226;2023-05-12T09:31:29;99906.50;;;15.43;64.81
22653;BME280;11493;43.344;26.226;2023-05-12T09:33:57;99913.16;;;15.59;63.86
22653;BME280;11493;43.344;26.226;2023-05-12T09:36:24;99908.06;;;15.61;63.80
22653;BME280;11493;43.344;26.226;2023-05-12T09:39:06;99906.91;;;15.62;64.28
22653;BME280;11493;43.344;26.226;2023-05-12T09:41:38;99898.50;;;15.80;63.11
22653;BME280;11493;43.344;26.226;2023-05-12T09:44:06;99910.16;;;15.94;62.29
22653;BME280;11493;43.344;26.226;2023-05-12T09:46:34;99905.56;;;15.98;62.38
22653;BME280;11493;43.344;26.226;2023-05-12T09:49:02;99911.44;;;16.38;62.28
22653;BME280;11493;43.344;26.226;2023-05-12T09:51:29;99904.25;;;16.58;61.11
22653;BME280;11493;43.344;26.226;2023-05-12T09:53:59;99906.00;;;16.83;61.01
22653;BME280;11493;43.344;26.226;2023-05-12T09:56:35;99899.69;;;16.95;61.03
22653;BME280;11493;43.344;26.226;2023-05-12T09:59:04;99908.41;;;17.05;60.78
22653;BME280;11493;43.344;26.226;2023-05-12T10:01:31;99890.44;;;17.15;60.23
22653;BME280;11493;43.344;26.226;2023-05-12T10:03:58;99911.66;;;17.32;59.86
22653;BME280;11493;43.344;26.226;2023-05-12T10:06:32;99912.38;;;17.41;58.46
22653;BME280;11493;43.344;26.226;2023-05-12T10:09:08;99904.81;;;17.05;59.10
22653;BME280;11493;43.344;26.226;2023-05-12T10:11:37;99904.22;;;17.12;59.28
22653;BME280;11493;43.344;26.226;2023-05-12T10:14:04;99903.75;;;17.22;58.19
22653;BME280;11493;43.344;26.226;2023-05-12T10:16:34;99896.81;;;17.28;58.62
22653;BME280;11493;43.344;26.226;2023-05-12T10:19:02;99893.94;;;17.36;58.40
22653;BME280;11493;43.344;26.226;2023-05-12T10:21:30;99895.22;;;17.63;56.98
22653;BME280;11493;43.344;26.226;2023-05-12T10:23:58;99898.94;;;17.55;58.51
22653;BME280;11493;43.344;26.226;2023-05-12T10:26:25;99883.41;;;17.42;58.56
22653;BME280;11493;43.344;26.226;2023-05-12T10:28:53;99886.44;;;17.73;57.51
22653;BME280;11493;43.344;26.226;2023-05-12T10:31:21;99882.94;;;17.89;57.74
22653;BME280;11493;43.344;26.226;2023-05-12T10:33:59;99870.31;;;18.31;54.71
22653;BME280;11493;43.344;26.226;2023-05-12T10:36:26;99878.19;;;18.29;54.06
22653;BME280;11493;43.344;26.226;2023-05-12T10:38:54;99870.25;;;18.44;54.43
22653;BME280;11493;43.344;26.226;2023-05-12T10:41:32;99874.66;;;18.45;55.21
22653;BME280;11493;43.344;26.226;2023-05-12T10:44:00;99869.16;;;18.60;54.54
22653;BME280;11493;43.344;26.226;2023-05-12T10:46:27;99869.41;;;18.55;53.10
22653;BME280;11493;43.344;26.226;2023-05-12T10:51:33;99861.03;;;18.55;52.80
22653;BME280;11493;43.344;26.226;2023-05-12T10:54:03;99872.75;;;18.61;52.98
22653;BME280;11493;43.344;26.226;2023-05-12T10:56:41;99870.63;;;18.58;52.50
22653;BME280;11493;43.344;26.226;2023-05-12T11:01:42;99868.75;;;18.74;51.28
22653;BME280;11493;43.344;26.226;2023-05-12T11:04:13;99874.50;;;18.81;52.91
22653;BME280;11493;43.344;26.226;2023-05-12T11:06:42;99875.94;;;18.75;53.64
22653;BME280;11493;43.344;26.226;2023-05-12T11:09:10;99867.31;;;18.80;53.70
22653;BME280;11493;43.344;26.226;2023-05-12T11:11:39;99860.13;;;18.79;52.13
22653;BME280;11493;43.344;26.226;2023-05-12T11:14:07;99857.00;;;18.53;51.95
22653;BME280;11493;43.344;26.226;2023-05-12T11:16:40;99855.94;;;18.17;53.49
22653;BME280;11493;43.344;26.226;2023-05-12T11:19:07;99861.66;;;18.49;52.70
22653;BME280;11493;43.344;26.226;2023-05-12T11:21:36;99865.53;;;18.60;53.04
22653;BME280;11493;43.344;26.226;2023-05-12T11:24:03;99852.75;;;18.87;51.24
22653;BME280;11493;43.344;26.226;2023-05-12T11:26:30;99857.06;;;18.84;52.00
22653;BME280;11493;43.344;26.226;2023-05-12T11:28:58;99855.72;;;18.78;51.97
22653;BME280;11493;43.344;26.226;2023-05-12T11:31:25;99856.44;;;18.91;52.14
22653;BME280;11493;43.344;26.226;2023-05-12T11:34:05;99849.97;;;18.87;52.28
22653;BME280;11493;43.344;26.226;2023-05-12T11:36:40;99855.97;;;18.73;51.26
22653;BME280;11493;43.344;26.226;2023-05-12T11:39:22;99861.19;;;18.75;51.66
22653;BME280;11493;43.344;26.226;2023-05-12T11:41:50;99855.44;;;18.83;52.38
22653;BME280;11493;43.344;26.226;2023-05-12T11:44:27;99845.47;;;18.82;51.47
22653;BME280;11493;43.344;26.226;2023-05-12T11:46:58;99853.53;;;18.71;51.46
22653;BME280;11493;43.344;26.226;2023-05-12T11:49:28;99852.19;;;18.81;51.30
22653;BME280;11493;43.344;26.226;2023-05-12T11:52:01;99849.94;;;18.71;51.09
22653;BME280;11493;43.344;26.226;2023-05-12T11:54:28;99848.41;;;18.74;50.82
22653;BME280;11493;43.344;26.226;2023-05-12T11:56:56;99855.91;;;18.85;51.38
22653;BME280;11493;43.344;26.226;2023-05-12T11:59:29;99857.38;;;19.11;50.25
22653;BME280;11493;43.344;26.226;2023-05-12T12:01:57;99842.09;;;19.20;49.49
22653;BME280;11493;43.344;26.226;2023-05-12T12:04:34;99853.22;;;18.89;50.04
22653;BME280;11493;43.344;26.226;2023-05-12T12:07:03;99853.66;;;18.91;49.51
22653;BME280;11493;43.344;26.226;2023-05-12T12:09:36;99851.81;;;18.67;51.88
22653;BME280;11493;43.344;26.226;2023-05-12T12:12:04;99848.44;;;18.89;50.40
22653;BME280;11493;43.344;26.226;2023-05-12T12:14:32;99853.31;;;18.92;50.14
22653;BME280;11493;43.344;26.226;2023-05-12T12:17:01;99857.69;;;18.78;50.38
22653;BME280;11493;43.344;26.226;2023-05-12T12:19:28;99852.31;;;18.57;50.66
22653;BME280;11493;43.344;26.226;2023-05-12T12:21:56;99839.06;;;18.38;50.60
22653;BME280;11493;43.344;26.226;2023-05-12T12:24:24;99836.38;;;18.42;50.03
22653;BME280;11493;43.344;26.226;2023-05-12T12:26:51;99845.94;;;18.28;51.02
22653;BME280;11493;43.344;26.226;2023-05-12T12:29:18;99830.81;;;18.01;51.84
22653;BME280;11493;43.344;26.226;2023-05-12T12:31:45;99835.22;;;18.02;52.78
22653;BME280;11493;43.344;26.226;2023-05-12T12:34:12;99840.19;;;18.09;52.42
22653;BME280;11493;43.344;26.226;2023-05-12T12:36:39;99839.09;;;17.86;53.04
22653;BME280;11493;43.344;26.226;2023-05-12T12:39:06;99821.28;;;17.75;53.06
22653;BME280;11493;43.344;26.226;2023-05-12T12:41:33;99821.50;;;17.69;52.76
22653;BME280;11493;43.344;26.226;2023-05-12T12:44:00;99841.22;;;17.77;52.70
22653;BME280;11493;43.344;26.226;2023-05-12T12:46:28;99814.19;;;17.53;52.77
22653;BME280;11493;43.344;26.226;2023-05-12T12:48:55;99832.97;;;17.56;53.64
22653;BME280;11493;43.344;26.226;2023-05-12T12:51:24;99825.44;;;17.56;51.90
22653;BME280;11493;43.344;26.226;2023-05-12T12:54:10;99824.28;;;17.45;52.54
22653;BME280;11493;43.344;26.226;2023-05-12T12:56:37;99814.41;;;17.60;53.22
22653;BME280;11493;43.344;26.226;2023-05-12T12:59:04;99810.94;;;17.51;53.23
22653;BME280;11493;43.344;26.226;2023-05-12T13:01:31;99819.75;;;17.77;52.51
22653;BME280;11493;43.344;26.226;2023-05-12T13:03:59;99811.53;;;17.81;51.56
22653;BME280;11493;43.344;26.226;2023-05-12T13:06:26;99811.94;;;17.83;52.19
22653;BME280;11493;43.344;26.226;2023-05-12T13:08:55;99805.31;;;17.87;52.53